createdAt,value
2023-01-01T00:02:40.044Z,11.05
2023-01-01T00:05:27.324Z,12.45
2023-01-01T00:08:14.460Z,13.57
2023-01-01T00:11:06.339Z,14.68
2023-01-01T00:13:53.497Z,15.73
2023-01-01T00:16:41.472Z,15.93
2023-01-01T00:19:25.207Z,15.68
2023-01-01T00:21:52.323Z,17.10
2023-01-01T00:24:49.560Z,17.15
2023-01-01T00:27:36.834Z,16.27
2023-01-01T00:30:25.081Z,17.05
2023-01-01T00:33:12.206Z,16.27
2023-01-01T00:36:10.593Z,17.80
2023-01-01T00:38:58.024Z,17.50
2023-01-01T00:41:45.135Z,16.10
2023-01-01T00:44:32.901Z,18.98
2023-01-01T00:47:20.000Z,17.35
2023-01-01T00:50:07.309Z,18.65
2023-01-01T00:52:54.444Z,19.13
2023-01-01T00:55:42.522Z,18.30
2023-01-01T00:58:29.685Z,20.30
2023-01-01T01:01:17.017Z,18.17
2023-01-01T01:04:04.636Z,19.13
2023-01-01T01:06:51.776Z,18.55
2023-01-01T01:09:39.228Z,19.40
2023-01-01T01:12:26.359Z,18.63
2023-01-01T01:15:14.298Z,17.25
2023-01-01T01:18:01.593Z,18.00
2023-01-01T01:20:53.332Z,17.23
2023-01-01T01:23:40.443Z,18.52
2023-01-01T01:26:32.985Z,14.77
2023-01-01T01:29:20.180Z,15.82
2023-01-01T01:32:07.397Z,14.30
2023-01-01T01:34:54.609Z,15.18
2023-01-01T01:37:41.684Z,15.45
2023-01-01T01:40:28.758Z,15.13
2023-01-01T01:43:42.129Z,13.63
2023-01-01T01:46:29.625Z,13.45
2023-01-01T01:49:24.328Z,13.80
2023-01-01T01:52:12.212Z,12.30
2023-01-01T01:55:02.206Z,11.77
2023-01-01T01:57:49.364Z,10.73
2023-01-01T02:00:36.577Z,9.88
2023-01-01T02:03:30.186Z,9.63
2023-01-01T02:06:19.829Z,8.80
2023-01-01T02:09:08.668Z,9.00
2023-01-01T02:11:55.769Z,8.52
2023-01-01T02:14:43.085Z,7.97
2023-01-01T02:17:48.739Z,7.53
2023-01-01T02:20:41.067Z,6.85
2023-01-01T02:23:55.272Z,7.22
2023-01-01T02:26:50.437Z,7.47
2023-01-01T02:29:50.840Z,6.78
2023-01-01T02:32:49.623Z,6.70
2023-01-01T02:35:42.459Z,6.30
2023-01-01T02:38:33.415Z,7.05
2023-01-01T02:41:33.914Z,6.45
2023-01-01T02:44:25.941Z,6.57
2023-01-01T02:47:16.598Z,6.10
2023-01-01T02:50:13.833Z,5.95
2023-01-01T02:53:18.944Z,6.25
2023-01-01T02:56:34.605Z,6.80
2023-01-01T02:59:50.919Z,5.65
2023-01-01T03:03:11.424Z,5.60
2023-01-01T03:06:26.911Z,5.50
2023-01-01T03:09:32.742Z,5.78
2023-01-01T03:12:40.240Z,4.95
2023-01-01T03:15:39.681Z,4.97
2023-01-01T03:19:15.915Z,4.55
2023-01-01T03:22:15.934Z,4.28
2023-01-01T03:25:21.669Z,5.00
2023-01-01T03:28:16.641Z,4.65
2023-01-01T03:31:04.512Z,5.30
2023-01-01T03:33:58.798Z,5.13
2023-01-01T03:36:57.564Z,4.90
2023-01-01T03:39:53.023Z,4.50
2023-01-01T03:42:43.800Z,4.03
2023-01-01T03:45:39.832Z,3.90
2023-01-01T03:48:26.979Z,4.15
2023-01-01T03:51:37.408Z,4.10
2023-01-01T03:54:46.143Z,4.93
2023-01-01T03:57:40.569Z,4.50
2023-01-01T04:00:33.837Z,4.53
2023-01-01T04:03:25.100Z,3.90
2023-01-01T04:06:12.250Z,4.05
2023-01-01T04:09:01.119Z,3.65
2023-01-01T04:12:01.506Z,4.22
2023-01-01T04:14:48.771Z,3.70
2023-01-01T04:17:35.918Z,3.25
2023-01-01T04:20:23.791Z,3.70
2023-01-01T04:23:10.828Z,3.35
2023-01-01T04:25:57.838Z,3.35
2023-01-01T04:28:44.927Z,3.30
2023-01-01T04:31:32.140Z,3.15
2023-01-01T04:34:19.266Z,2.85
2023-01-01T04:37:11.385Z,2.50
2023-01-01T04:40:00.438Z,2.90
2023-01-01T04:42:47.493Z,3.13
2023-01-01T04:45:34.617Z,2.97
2023-01-01T04:48:21.689Z,2.63
2023-01-01T04:51:11.224Z,2.53
2023-01-01T04:53:59.745Z,3.00
2023-01-01T04:56:46.960Z,2.72
2023-01-01T04:59:34.118Z,2.55
2023-01-01T05:02:21.256Z,2.70
2023-01-01T05:05:08.743Z,2.70
2023-01-01T05:07:55.849Z,2.55
2023-01-01T05:10:42.897Z,2.60
2023-01-01T05:13:30.953Z,2.88
2023-01-01T05:16:21.723Z,2.53
2023-01-01T05:19:09.811Z,2.45
2023-01-01T05:21:57.052Z,2.70
2023-01-01T05:24:44.147Z,2.30
2023-01-01T05:27:31.224Z,2.22
2023-01-01T05:30:18.319Z,2.78
2023-01-01T05:33:05.457Z,2.42
2023-01-01T05:35:54.614Z,2.30
2023-01-01T05:38:41.710Z,2.15
2023-01-01T05:41:31.110Z,2.10
2023-01-01T05:44:19.683Z,2.05
2023-01-01T05:47:06.833Z,2.20
2023-01-01T05:49:53.972Z,2.10
2023-01-01T05:52:41.186Z,2.10
2023-01-01T05:55:28.923Z,2.25
2023-01-01T05:58:15.987Z,2.30
2023-01-01T06:01:14.928Z,2.10
2023-01-01T06:04:02.319Z,2.22
2023-01-01T06:06:49.402Z,2.13
2023-01-01T06:09:36.581Z,2.20
2023-01-01T06:12:23.800Z,2.00
2023-01-01T06:15:10.993Z,2.25
2023-01-01T06:17:58.973Z,2.30
2023-01-01T06:20:46.039Z,2.50
2023-01-01T06:23:33.419Z,2.20
2023-01-01T06:26:26.611Z,2.95
2023-01-01T06:29:13.683Z,2.50
2023-01-01T06:32:00.786Z,2.55
2023-01-01T06:34:48.034Z,2.25
2023-01-01T06:37:35.638Z,2.30
2023-01-01T06:40:22.956Z,2.50
2023-01-01T06:43:10.040Z,2.30
2023-01-01T06:46:16.555Z,3.03
2023-01-01T06:49:11.336Z,2.40
2023-01-01T06:51:58.416Z,2.22
2023-01-01T06:54:45.482Z,2.28
2023-01-01T06:57:34.592Z,2.20
2023-01-01T07:00:22.427Z,2.10
2023-01-01T07:03:12.827Z,2.58
2023-01-01T07:06:00.174Z,2.20
2023-01-01T07:08:47.443Z,2.22
2023-01-01T07:11:35.239Z,2.78
2023-01-01T07:14:22.378Z,2.03
2023-01-01T07:17:09.489Z,2.20
2023-01-01T07:19:56.510Z,2.25
2023-01-01T07:22:43.693Z,2.17
2023-01-01T07:25:30.759Z,2.10
2023-01-01T07:28:18.116Z,2.13
2023-01-01T07:31:06.570Z,2.20
2023-01-01T07:33:53.762Z,2.08
2023-01-01T07:36:41.661Z,2.00
2023-01-01T07:39:28.722Z,1.92
2023-01-01T07:42:15.861Z,1.90
2023-01-01T07:45:03.067Z,2.10
2023-01-01T07:47:53.057Z,2.22
2023-01-01T07:50:40.297Z,1.75
2023-01-01T07:53:27.420Z,2.30
2023-01-01T07:56:14.825Z,2.20
2023-01-01T07:59:02.148Z,2.10
2023-01-01T08:01:49.305Z,2.72
2023-01-01T08:04:36.671Z,2.03
2023-01-01T08:07:23.804Z,2.20
2023-01-01T08:10:12.134Z,2.30
2023-01-01T08:13:07.302Z,2.00
2023-01-01T08:15:55.591Z,2.17
2023-01-01T08:18:42.729Z,1.88
2023-01-01T08:21:30.098Z,2.13
2023-01-01T08:24:17.265Z,2.15
2023-01-01T08:27:04.336Z,2.00
2023-01-01T08:29:51.549Z,2.15
2023-01-01T08:32:38.700Z,2.00
2023-01-01T08:35:25.717Z,2.00
2023-01-01T08:38:12.936Z,1.90
2023-01-01T08:41:00.003Z,1.80
2023-01-01T08:43:47.118Z,1.83
2023-01-01T08:46:34.364Z,2.08
2023-01-01T08:49:21.521Z,1.90
2023-01-01T08:52:08.567Z,1.88
2023-01-01T08:54:55.652Z,1.77
2023-01-01T08:57:42.780Z,1.98
2023-01-01T09:00:30.014Z,1.48
2023-01-01T09:03:17.229Z,2.42
2023-01-01T09:06:05.013Z,1.90
2023-01-01T09:08:52.097Z,2.00
2023-01-01T09:11:39.289Z,2.00
2023-01-01T09:14:26.496Z,1.90
2023-01-01T09:17:13.619Z,1.95
2023-01-01T09:20:00.733Z,2.38
2023-01-01T09:22:47.993Z,2.33
2023-01-01T09:25:36.556Z,2.10
2023-01-01T09:28:26.008Z,2.15
2023-01-01T09:31:13.354Z,2.00
2023-01-01T09:34:00.684Z,2.08
2023-01-01T09:36:47.847Z,2.00
2023-01-01T09:39:35.070Z,2.03
2023-01-01T09:42:28.958Z,1.70
2023-01-01T09:45:36.428Z,2.08
2023-01-01T09:48:25.830Z,2.20
2023-01-01T09:51:19.654Z,2.08
2023-01-01T09:54:15.513Z,1.88
2023-01-01T09:57:09.819Z,2.20
2023-01-01T10:00:00.457Z,2.33
2023-01-01T10:03:21.505Z,2.20
2023-01-01T10:09:32.727Z,2.15
2023-01-01T10:12:24.758Z,2.35
2023-01-01T10:15:20.500Z,2.20
2023-01-01T10:18:17.551Z,1.90
2023-01-01T10:21:07.910Z,2.20
2023-01-01T10:23:59.480Z,2.10
2023-01-01T10:26:48.059Z,2.78
2023-01-01T10:29:35.190Z,2.25
2023-01-01T10:32:28.654Z,2.03
2023-01-01T10:35:19.390Z,2.00
2023-01-01T10:38:06.613Z,2.13
2023-01-01T10:41:01.731Z,2.10
2023-01-01T10:43:50.176Z,2.00
2023-01-01T10:46:42.885Z,2.03
2023-01-01T10:49:29.976Z,2.30
2023-01-01T10:52:27.865Z,2.10
2023-01-01T10:55:25.818Z,2.13
2023-01-01T10:58:36.023Z,1.90
2023-01-01T11:01:27.707Z,1.90
2023-01-01T11:04:21.361Z,2.10
2023-01-01T11:07:08.582Z,2.10
2023-01-01T11:10:07.283Z,1.95
2023-01-01T11:13:10.097Z,1.90
2023-01-01T11:15:57.982Z,2.00
2023-01-01T11:18:45.239Z,1.90
2023-01-01T11:21:34.006Z,1.80
2023-01-01T11:24:29.950Z,2.10
2023-01-01T11:27:25.460Z,2.00
2023-01-01T11:30:21.623Z,1.95
2023-01-01T11:33:16.524Z,1.73
2023-01-01T11:36:05.253Z,2.30
2023-01-01T11:39:05.711Z,2.17
2023-01-01T11:41:55.687Z,1.80
2023-01-01T11:44:46.562Z,1.90
2023-01-01T11:50:36.527Z,2.13
2023-01-01T11:53:23.829Z,1.80
2023-01-01T11:56:20.653Z,2.08
2023-01-01T11:59:21.651Z,2.17
2023-01-01T12:05:09.135Z,2.10
2023-01-01T12:07:59.535Z,2.03
2023-01-01T12:10:53.145Z,1.95
2023-01-01T12:13:50.913Z,2.08
2023-01-01T12:16:49.567Z,2.03
2023-01-01T12:19:50.217Z,1.98
2023-01-01T12:22:37.440Z,2.10
2023-01-01T12:25:32.715Z,1.90
2023-01-01T12:28:33.993Z,2.08
2023-01-01T12:31:30.340Z,2.08
2023-01-01T12:34:33.546Z,2.05
2023-01-01T12:37:58.775Z,1.90
2023-01-01T12:41:04.060Z,2.33
2023-01-01T12:44:14.523Z,1.95
2023-01-01T12:47:53.646Z,1.90
2023-01-01T12:51:05.196Z,2.20
2023-01-01T12:54:14.783Z,2.03
2023-01-01T12:57:17.603Z,2.03
2023-01-01T13:00:14.110Z,2.40
2023-01-01T13:03:31.370Z,2.22
2023-01-01T13:06:28.455Z,2.30
2023-01-01T13:09:20.995Z,2.28
2023-01-01T13:12:18.863Z,1.92
2023-01-01T13:15:36.997Z,2.20
2023-01-01T13:18:28.585Z,1.85
2023-01-01T13:21:25.548Z,2.38
2023-01-01T13:24:24.778Z,1.92
2023-01-01T13:27:11.894Z,2.22
2023-01-01T13:30:00.824Z,2.30
2023-01-01T13:33:12.655Z,2.22
2023-01-01T13:36:09.092Z,2.67
2023-01-01T13:38:58.260Z,2.30
2023-01-01T13:41:46.137Z,2.40
2023-01-01T13:44:33.293Z,2.40
2023-01-01T13:47:39.098Z,2.03
2023-01-01T13:50:36.876Z,2.20
2023-01-01T13:53:26.723Z,2.70
2023-01-01T13:56:31.594Z,1.92
2023-01-01T13:59:47.238Z,2.10
2023-01-01T14:02:53.092Z,2.42
2023-01-01T14:05:50.479Z,2.20
2023-01-01T14:08:37.879Z,2.00
2023-01-01T14:11:25.258Z,2.20
2023-01-01T14:14:38.867Z,2.03
2023-01-01T14:17:25.955Z,2.20
2023-01-01T14:20:19.696Z,2.10
2023-01-01T14:23:15.740Z,2.10
2023-01-01T14:26:10.124Z,1.85
2023-01-01T14:29:06.067Z,1.90
2023-01-01T14:31:54.165Z,1.95
2023-01-01T14:34:42.742Z,2.13
2023-01-01T14:37:30.067Z,2.70
2023-01-01T14:40:27.993Z,2.28
2023-01-01T14:43:16.673Z,2.53
2023-01-01T14:46:10.928Z,2.10
2023-01-01T14:49:02.171Z,2.13
2023-01-01T14:51:57.715Z,2.17
2023-01-01T14:54:46.232Z,2.40
2023-01-01T14:57:35.746Z,1.77
2023-01-01T15:00:29.120Z,3.70
2023-01-01T15:03:21.340Z,21.33
2023-01-01T15:06:16.602Z,4.30
2023-01-01T15:09:04.149Z,2.40
2023-01-01T15:11:53.340Z,2.40
2023-01-01T15:14:43.765Z,1.80
2023-01-01T15:17:45.429Z,2.63
2023-01-01T15:20:33.448Z,2.67
2023-01-01T15:23:20.611Z,2.45
2023-01-01T15:26:09.381Z,2.55
2023-01-01T15:28:58.649Z,2.22
2023-01-01T15:31:53.869Z,2.40
2023-01-01T15:34:48.845Z,2.38
2023-01-01T15:37:45.245Z,3.58
2023-01-01T15:40:35.351Z,2.38
2023-01-01T15:43:25.489Z,2.00
2023-01-01T15:46:32.055Z,2.28
2023-01-01T15:49:27.917Z,2.22
2023-01-01T15:52:27.520Z,3.78
2023-01-01T15:55:16.117Z,2.05
2023-01-01T15:58:04.448Z,1.83
2023-01-01T16:00:57.544Z,2.28
2023-01-01T16:03:48.372Z,2.38
2023-01-01T16:06:44.432Z,2.45
2023-01-01T16:09:33.553Z,2.30
2023-01-01T16:12:21.620Z,2.33
2023-01-01T16:15:14.929Z,2.40
2023-01-01T16:18:02.652Z,2.30
2023-01-01T16:20:49.924Z,2.08
2023-01-01T16:23:37.206Z,2.72
2023-01-01T16:26:24.332Z,2.17
2023-01-01T16:29:11.865Z,2.20
2023-01-01T16:31:59.173Z,2.53
2023-01-01T16:34:46.282Z,2.05
2023-01-01T16:37:33.644Z,2.38
2023-01-01T16:40:20.871Z,2.88
2023-01-01T16:43:16.211Z,2.65
2023-01-01T16:46:05.985Z,2.40
2023-01-01T16:48:57.034Z,2.55
2023-01-01T16:51:44.537Z,2.72
2023-01-01T16:54:31.790Z,2.45
2023-01-01T16:57:18.892Z,2.15
2023-01-01T17:00:07.161Z,2.28
2023-01-01T17:02:54.344Z,2.33
2023-01-01T17:05:44.370Z,2.33
2023-01-01T17:08:32.056Z,2.40
2023-01-01T17:11:20.529Z,2.13
2023-01-01T17:14:10.131Z,2.10
2023-01-01T17:16:57.412Z,2.50
2023-01-01T17:19:44.507Z,2.40
2023-01-01T17:22:34.421Z,3.08
2023-01-01T17:25:22.316Z,2.80
2023-01-01T17:28:09.385Z,2.42
2023-01-01T17:31:02.935Z,2.20
2023-01-01T17:33:50.637Z,2.30
2023-01-01T17:36:38.022Z,2.30
2023-01-01T17:39:25.126Z,2.33
2023-01-01T17:42:12.162Z,2.70
2023-01-01T17:44:59.664Z,2.47
2023-01-01T17:47:46.767Z,2.45
2023-01-01T17:50:33.874Z,2.60
2023-01-01T17:53:20.957Z,2.40
2023-01-01T17:56:09.804Z,2.42
2023-01-01T17:58:56.932Z,2.83
2023-01-01T18:01:44.495Z,2.35
2023-01-01T18:04:32.089Z,2.55
2023-01-01T18:07:19.452Z,3.33
2023-01-01T18:10:07.083Z,2.88
2023-01-01T18:12:55.638Z,2.47
2023-01-01T18:15:42.841Z,2.28
2023-01-01T18:18:33.152Z,2.85
2023-01-01T18:21:22.323Z,2.28
2023-01-01T18:24:14.694Z,2.78
2023-01-01T18:27:01.751Z,2.13
2023-01-01T18:29:49.521Z,2.20
2023-01-01T18:32:36.657Z,2.58
2023-01-01T18:35:23.833Z,2.05
2023-01-01T18:38:12.634Z,2.65
2023-01-01T18:41:21.473Z,2.53
2023-01-01T18:44:33.152Z,2.30
2023-01-01T18:47:21.105Z,2.15
2023-01-01T18:50:27.484Z,2.25
2023-01-01T18:53:23.402Z,1.90
2023-01-01T18:56:14.108Z,2.17
2023-01-01T18:59:02.337Z,2.13
2023-01-01T19:01:50.048Z,1.90
2023-01-01T19:04:37.346Z,2.08
2023-01-01T19:07:25.074Z,2.28
2023-01-01T19:10:13.246Z,1.88
2023-01-01T19:13:08.255Z,2.50
2023-01-01T19:15:57.718Z,1.90
2023-01-01T19:18:46.281Z,1.95
2023-01-01T19:21:33.530Z,1.95
2023-01-01T19:24:26.416Z,1.80
2023-01-01T19:27:18.038Z,1.80
2023-01-01T19:30:23.455Z,1.80
2023-01-01T19:33:11.090Z,1.85
2023-01-01T19:35:58.955Z,1.80
2023-01-01T19:38:46.246Z,1.77
2023-01-01T19:41:34.002Z,1.95
2023-01-01T19:44:24.973Z,1.67
2023-01-01T19:47:12.581Z,1.77
2023-01-01T19:49:59.800Z,2.05
2023-01-01T19:52:47.719Z,1.45
2023-01-01T19:55:34.960Z,1.70
2023-01-01T19:58:23.037Z,1.48
2023-01-01T20:01:10.701Z,1.77
2023-01-01T20:03:58.943Z,1.77
2023-01-01T20:06:46.371Z,1.70
2023-01-01T20:09:34.519Z,1.65
2023-01-01T20:12:22.551Z,2.22
2023-01-01T20:15:10.003Z,1.80
2023-01-01T20:17:57.130Z,1.85
2023-01-01T20:21:02.802Z,1.75
2023-01-01T20:23:50.222Z,1.88
2023-01-01T20:26:37.389Z,1.80
2023-01-01T20:29:24.728Z,1.65
2023-01-01T20:32:15.742Z,1.75
2023-01-01T20:35:03.017Z,1.92
2023-01-01T20:37:50.247Z,1.60
2023-01-01T20:40:37.352Z,1.77
2023-01-01T20:43:24.429Z,2.15
2023-01-01T20:46:11.601Z,1.90
2023-01-01T20:48:59.493Z,1.80
2023-01-01T20:51:51.809Z,2.00
2023-01-01T20:54:38.940Z,1.70
2023-01-01T20:57:26.018Z,1.60
2023-01-01T21:00:13.572Z,1.52
2023-01-01T21:03:00.680Z,1.75
2023-01-01T21:05:49.337Z,1.48
2023-01-01T21:08:36.526Z,1.60
2023-01-01T21:11:25.507Z,1.63
2023-01-01T21:14:12.999Z,1.55
2023-01-01T21:17:00.712Z,1.60
2023-01-01T21:19:49.023Z,1.30
2023-01-01T21:22:36.412Z,1.95
2023-01-01T21:28:34.096Z,1.60
2023-01-01T21:31:21.836Z,1.50
2023-01-01T21:34:34.569Z,1.63
2023-01-01T21:37:52.634Z,1.63
2023-01-01T21:40:45.766Z,1.58
2023-01-01T21:43:35.971Z,1.40
2023-01-01T21:46:36.068Z,1.38
2023-01-01T21:49:36.795Z,1.52
2023-01-01T21:52:25.845Z,1.80
2023-01-01T21:55:24.979Z,1.40
2023-01-01T21:58:35.588Z,1.60
2023-01-01T22:01:36.730Z,1.52
2023-01-01T22:07:57.039Z,1.65
2023-01-01T22:10:36.030Z,1.40
2023-01-01T22:13:25.074Z,1.60
2023-01-01T22:16:16.208Z,1.40
2023-01-01T22:19:12.209Z,1.48
2023-01-01T22:21:59.489Z,1.45
2023-01-01T22:25:01.124Z,1.38
2023-01-01T22:27:48.200Z,1.80
2023-01-01T22:30:40.149Z,1.30
2023-01-01T22:33:36.128Z,1.55
2023-01-01T22:36:26.395Z,1.38
2023-01-01T22:39:29.889Z,1.50
2023-01-01T22:42:19.298Z,1.50
2023-01-01T22:45:14.856Z,1.30
2023-01-01T22:48:05.764Z,1.42
2023-01-01T22:50:54.243Z,1.70
2023-01-01T22:53:41.324Z,1.63
2023-01-01T22:56:28.556Z,1.60
2023-01-01T22:59:15.915Z,1.65
2023-01-01T23:02:03.662Z,1.15
2023-01-01T23:04:51.093Z,1.50
2023-01-01T23:07:42.315Z,1.50
2023-01-01T23:10:31.113Z,1.60
2023-01-01T23:13:37.552Z,1.27
2023-01-01T23:16:24.846Z,1.30
2023-01-01T23:19:12.016Z,1.40
2023-01-01T23:22:01.750Z,1.40
2023-01-01T23:24:48.845Z,1.40
2023-01-01T23:27:36.913Z,1.23
2023-01-01T23:30:24.018Z,1.35
2023-01-01T23:33:11.240Z,1.30
2023-01-01T23:35:59.419Z,1.50
2023-01-01T23:38:47.068Z,1.50
2023-01-01T23:41:34.228Z,1.40
2023-01-01T23:44:21.349Z,1.50
2023-01-01T23:47:09.462Z,1.45
2023-01-01T23:49:56.641Z,1.35
2023-01-01T23:52:43.867Z,1.33
2023-01-01T23:55:30.945Z,1.40
2023-01-01T23:58:18.200Z,1.50
